This is the latest recevied weather packets stored in our database for station/object OE6ACM-10. If no packets are shown the sender has not sent any weather packets the latest 10 day(s).
| Time | Temp. | Humidity | Pressure | Rain* | Wind** | Luminosity | Snow |
|---|---|---|---|---|---|---|---|
| 1788279957 | 33.33° C | 100% | 930.8 hPa | - | - | - | - |
| 1788279657 | 33.89° C | 100% | 930.7 hPa | - | - | - | - |
| 1788279357 | 33.33° C | 100% | 930.7 hPa | - | - | - | - |
| 1788279057 | 33.33° C | 100% | 930.8 hPa | - | - | - | - |
| 1788278757 | 33.33° C | 100% | 930.8 hPa | - | - | - | - |
| 1788278457 | 33.33° C | 100% | 930.8 hPa | - | - | - | - |
| 1788278157 | 33.33° C | 100% | 930.8 hPa | - | - | - | - |
| 1788277857 | 35.56° C | 100% | 930.8 hPa | - | - | - | - |
| 1788277557 | 36.67° C | 100% | 930.8 hPa | - | - | - | - |
| 1788277257 | 36.11° C | 100% | 930.9 hPa | - | - | - | - |
| 1788276957 | 37.22° C | 89% | 930.9 hPa | - | - | - | - |
| 1788276657 | 39.44° C | 70% | 930.8 hPa | - | - | - | - |
| 1788276357 | 40.56° C | 69% | 930.8 hPa | - | - | - | - |
| 1788276057 | 41.11° C | 71% | 930.8 hPa | - | - | - | - |
| 1788275757 | 40.56° C | 74% | 930.8 hPa | - | - | - | - |
| 1788275457 | 39.44° C | 66% | 930.7 hPa | - | - | - | - |
| 1788275157 | 40° C | 61% | 930.8 hPa | - | - | - | - |
| 1788274857 | 43.33° C | 51% | 930.8 hPa | - | - | - | - |
| 1788274557 | 43.89° C | 53% | 930.8 hPa | - | - | - | - |
| 1788274257 | 42.78° C | 61% | 930.9 hPa | - | - | - | - |
| 1788273957 | 42.22° C | 59% | 930.9 hPa | - | - | - | - |
| 1788273657 | 41.67° C | 62% | 930.8 hPa | - | - | - | - |
| 1788273357 | 40.56° C | 74% | 930.9 hPa | - | - | - | - |
| 1788273057 | 37.78° C | 96% | 930.9 hPa | - | - | - | - |
| 1788272757 | 37.22° C | 81% | 930.9 hPa | - | - | - | - |
* Rain since midnight (hover to see other rain measurements)
** Current wind speed in m/s (hover to see current wind gust speed)